createdAt,value
2023-04-16T00:12:18.471Z,1017.42
2023-04-16T00:40:50.837Z,1017.42
2023-04-16T01:09:38.385Z,1017.51
2023-04-16T01:38:22.535Z,1017.69
2023-04-16T02:07:05.977Z,1017.76
2023-04-16T02:35:50.841Z,1017.9
2023-04-16T03:04:34.952Z,1017.82
2023-04-16T03:33:07.387Z,1017.89
2023-04-16T04:01:55.637Z,1017.92
2023-04-16T04:30:32.837Z,1018.02
2023-04-16T04:59:16.885Z,1018.25
2023-04-16T05:27:56.775Z,1018.61
2023-04-16T05:56:43.398Z,1018.99
2023-04-16T06:25:29.026Z,1019.28
2023-04-16T06:53:58.114Z,1019.44
2023-04-16T07:22:41.554Z,1019.52
2023-04-16T07:51:23.300Z,1019.66
2023-04-16T08:20:02.954Z,1019.96
2023-04-16T08:48:42.212Z,1020.19
2023-04-16T09:17:16.369Z,1020.41
2023-04-16T09:45:40.511Z,1020.49
2023-04-16T10:14:18.879Z,1020.62
2023-04-16T10:42:50.468Z,1020.6
2023-04-16T11:11:25.288Z,1020.51
2023-04-16T11:39:52.999Z,1020.49
2023-04-16T12:11:28.209Z,1020.63
2023-04-16T12:42:31.613Z,1020.8
2023-04-16T13:10:48.016Z,1020.74
2023-04-16T13:38:53.269Z,1020.96
2023-04-16T14:07:25.421Z,1021.01
2023-04-16T14:35:57.473Z,1020.86
2023-04-16T15:04:33.400Z,1020.9
2023-04-16T15:32:58.179Z,1020.98
2023-04-16T16:01:25.959Z,1020.96
2023-04-16T16:29:40.736Z,1021.24
2023-04-16T16:58:10.017Z,1021.32
2023-04-16T17:26:43.873Z,1021.4
2023-04-16T18:23:57.658Z,1021.62
2023-04-16T18:52:25.952Z,1021.6
2023-04-16T19:20:58.130Z,1021.79
2023-04-16T19:49:54.798Z,1021.84
2023-04-16T20:18:39.727Z,1021.91
2023-04-16T20:47:24.945Z,1021.76
2023-04-16T21:16:22.540Z,1021.62
2023-04-16T21:45:23.593Z,1021.5
2023-04-16T22:14:01.883Z,1021.51
2023-04-16T22:42:49.285Z,1021.42
2023-04-16T23:11:33.281Z,1021.42
2023-04-16T23:40:33.578Z,1021.31
